Time;durP1;ratioP1;P1;durP2;ratioP2;P2;SDS_P1;SDS_P2;PMS_P1;PMS_P2;Temp;Humidity;BMP_temperature;BMP_pressure;BME280_temperature;BME280_humidity;BME280_pressure;Samples;Min_cycle;Max_cycle;Signal;HPM_P1;HPM_P2
2022/01/05 00:01:47;;;;;;;1.70;1.60;;;13.10;99.90;;;;;;5115388;28;20204;-86
2022/01/05 00:04:17;;;;;;;1.73;1.63;;;13.00;99.90;;;;;;5115966;28;20208;-86
2022/01/05 00:06:45;;;;;;;2.80;1.55;;;13.00;99.90;;;;;;5115322;28;20223;-86
2022/01/05 00:09:14;;;;;;;2.55;2.35;;;12.90;99.90;;;;;;5115057;28;20211;-85
2022/01/05 00:11:42;;;;;;;2.42;2.20;;;12.90;99.90;;;;;;5115479;28;20231;-86
2022/01/05 00:14:10;;;;;;;3.22;2.47;;;12.90;99.90;;;;;;5115010;27;20314;-86
2022/01/05 00:16:39;;;;;;;2.00;1.85;;;12.80;99.90;;;;;;5115322;28;20254;-86
2022/01/05 00:19:07;;;;;;;2.22;2.03;;;12.80;99.90;;;;;;5114925;28;20295;-86
2022/01/05 00:21:38;;;;;;;1.90;1.80;;;12.70;99.90;;;;;;5115621;28;20288;-86
2022/01/05 00:24:07;;;;;;;2.85;1.88;;;12.70;99.90;;;;;;5115400;28;20233;-86
2022/01/05 00:26:35;;;;;;;1.88;1.77;;;12.70;99.90;;;;;;5115517;28;20306;-86
2022/01/05 00:29:04;;;;;;;2.72;1.67;;;12.70;99.90;;;;;;5114749;28;20207;-86
2022/01/05 00:31:32;;;;;;;2.00;1.65;;;12.80;99.90;;;;;;5114915;28;20253;-86
2022/01/05 00:34:05;;;;;;;2.75;2.08;;;12.70;99.90;;;;;;5115530;27;20200;-86
2022/01/05 00:36:34;;;;;;;2.97;1.73;;;12.70;99.90;;;;;;5115654;28;20315;-86
2022/01/05 00:39:04;;;;;;;2.20;2.00;;;12.70;99.90;;;;;;5114718;28;20204;-86
2022/01/05 00:41:33;;;;;;;2.30;2.10;;;12.60;99.90;;;;;;5114403;28;20291;-86
2022/01/05 00:44:01;;;;;;;2.20;2.00;;;12.50;99.90;;;;;;5114785;28;20249;-86
2022/01/05 00:46:29;;;;;;;1.92;1.80;;;12.50;99.90;;;;;;5114818;28;20307;-86
2022/01/05 00:48:58;;;;;;;2.10;2.00;;;12.40;99.90;;;;;;5114897;28;20254;-86
2022/01/05 00:51:26;;;;;;;1.90;1.77;;;12.40;99.90;;;;;;5114750;28;20243;-86
2022/01/05 00:53:54;;;;;;;1.73;1.63;;;12.40;99.90;;;;;;5114812;28;20207;-86
2022/01/05 00:56:24;;;;;;;2.47;2.28;;;12.30;99.90;;;;;;5114383;28;20265;-86
2022/01/05 00:58:52;;;;;;;2.70;2.10;;;12.30;99.90;;;;;;5114265;28;20235;-86
2022/01/05 01:01:20;;;;;;;1.88;1.77;;;12.20;99.90;;;;;;5114870;28;20208;-86
2022/01/05 01:03:49;;;;;;;2.65;2.38;;;12.20;99.90;;;;;;5114588;27;20298;-86
2022/01/05 01:06:17;;;;;;;1.77;1.67;;;12.20;99.90;;;;;;5114525;27;20253;-86
2022/01/05 01:08:46;;;;;;;2.50;2.30;;;12.10;99.90;;;;;;5113953;27;20234;-86
2022/01/05 01:11:14;;;;;;;9.25;2.38;;;12.00;99.90;;;;;;5114292;28;20296;-86
2022/01/05 01:13:44;;;;;;;2.63;2.40;;;12.00;99.90;;;;;;5114762;28;20207;-86
2022/01/05 01:16:13;;;;;;;2.28;2.08;;;11.90;99.90;;;;;;5114621;28;20311;-85
2022/01/05 01:18:41;;;;;;;2.53;2.30;;;11.90;99.90;;;;;;5114139;27;20231;-86
2022/01/05 01:21:09;;;;;;;2.00;1.90;;;11.90;99.90;;;;;;5114051;28;20227;-86
2022/01/05 01:23:40;;;;;;;2.28;2.10;;;11.80;99.90;;;;;;5114209;28;20310;-86
2022/01/05 01:26:08;;;;;;;2.67;1.92;;;11.80;99.90;;;;;;5114064;28;20292;-86
2022/01/05 01:28:39;;;;;;;2.10;1.90;;;11.70;99.90;;;;;;5114224;27;20235;-86
2022/01/05 01:31:09;;;;;;;4.10;2.20;;;11.70;99.90;;;;;;5113825;28;20247;-86
2022/01/05 01:33:37;;;;;;;2.25;2.05;;;11.60;99.90;;;;;;5113861;27;20223;-86
2022/01/05 01:36:06;;;;;;;2.50;2.10;;;11.60;99.90;;;;;;5113841;28;20315;-86
2022/01/05 01:38:34;;;;;;;2.53;2.33;;;11.60;99.90;;;;;;5114252;28;20236;-86
2022/01/05 01:41:03;;;;;;;1.95;1.77;;;11.60;99.90;;;;;;5113529;28;20192;-86
2022/01/05 01:43:32;;;;;;;2.03;1.85;;;11.50;99.90;;;;;;5114117;28;20257;-86
2022/01/05 01:46:02;;;;;;;3.50;2.55;;;11.50;99.90;;;;;;5113852;28;20295;-86
2022/01/05 01:48:32;;;;;;;4.10;2.42;;;11.50;99.90;;;;;;5113757;28;20204;-88
2022/01/05 01:51:00;;;;;;;1.80;1.70;;;11.50;99.90;;;;;;5113281;27;20274;-83
2022/01/05 01:53:28;;;;;;;2.92;1.70;;;11.50;99.90;;;;;;5113108;28;20239;-82
2022/01/05 01:55:59;;;;;;;1.95;1.80;;;11.60;99.90;;;;;;5114174;28;20253;-82
2022/01/05 01:58:33;;;;;;;1.90;1.80;;;11.50;99.90;;;;;;5113855;28;20242;-82
2022/01/05 02:01:02;;;;;;;1.92;1.80;;;11.50;99.90;;;;;;5113685;28;20246;-83
2022/01/05 02:03:33;;;;;;;1.77;1.67;;;11.50;99.90;;;;;;5116163;28;20187;-86
2022/01/05 02:06:01;;;;;;;1.70;1.60;;;11.50;99.90;;;;;;5115176;28;20227;-86
2022/01/05 02:08:29;;;;;;;2.38;2.17;;;11.50;99.90;;;;;;5114029;28;20235;-85
2022/01/05 02:10:58;;;;;;;2.53;2.15;;;11.50;99.90;;;;;;5112696;27;20330;-85
2022/01/05 02:13:26;;;;;;;2.00;1.88;;;11.50;99.90;;;;;;5113085;28;20260;-85
2022/01/05 02:15:54;;;;;;;2.95;2.00;;;11.50;99.90;;;;;;5113049;28;20270;-85
2022/01/05 02:21:07;;;;;;;1.85;1.67;;;11.50;99.90;;;;;;5113789;28;20231;-85
2022/01/05 02:23:37;;;;;;;1.98;1.83;;;11.40;99.90;;;;;;5113124;28;20208;-83
2022/01/05 02:26:06;;;;;;;1.90;1.73;;;11.40;99.90;;;;;;5112947;28;20298;-82
2022/01/05 02:28:35;;;;;;;2.40;1.60;;;11.40;99.90;;;;;;5113253;28;20200;-83
2022/01/05 02:31:04;;;;;;;2.05;1.85;;;11.40;99.90;;;;;;5112509;28;20223;-83
2022/01/05 02:33:33;;;;;;;2.55;1.85;;;11.40;99.90;;;;;;5113061;28;20210;-83
2022/01/05 02:36:03;;;;;;;1.60;1.50;;;11.40;99.90;;;;;;5113219;28;20223;-83
2022/01/05 02:38:33;;;;;;;1.73;1.60;;;11.40;99.90;;;;;;5112885;28;20208;-83
2022/01/05 02:41:07;;;;;;;1.67;1.58;;;11.40;99.90;;;;;;5112848;28;20229;-83
2022/01/05 02:43:36;;;;;;;1.65;1.55;;;11.40;99.90;;;;;;5113018;28;20234;-83
2022/01/05 02:46:06;;;;;;;1.70;1.60;;;11.40;99.90;;;;;;5113174;28;20306;-83
2022/01/05 02:48:34;;;;;;;3.28;1.92;;;11.30;99.90;;;;;;5113000;27;20208;-82
2022/01/05 02:51:03;;;;;;;2.10;1.95;;;11.30;99.90;;;;;;5112073;27;20211;-82
2022/01/05 02:53:33;;;;;;;1.35;1.25;;;11.30;99.90;;;;;;5112914;27;20245;-82
2022/01/05 02:56:02;;;;;;;3.70;1.35;;;11.30;99.90;;;;;;5112786;28;20247;-83
2022/01/05 02:58:30;;;;;;;0.80;0.80;;;11.30;99.90;;;;;;5113256;28;20224;-83
2022/01/05 03:00:59;;;;;;;1.10;1.00;;;11.20;99.90;;;;;;5112822;28;20205;-82
2022/01/05 03:03:28;;;;;;;0.70;0.70;;;11.20;99.90;;;;;;5114211;28;20207;-82
2022/01/05 03:05:56;;;;;;;0.73;0.73;;;11.20;99.90;;;;;;5117188;28;20287;-82
2022/01/05 03:08:24;;;;;;;0.70;0.70;;;11.20;99.90;;;;;;5116656;27;20215;-82
2022/01/05 03:10:55;;;;;;;0.90;0.80;;;11.10;99.90;;;;;;5116141;28;20227;-82
2022/01/05 03:13:24;;;;;;;0.28;0.28;;;11.10;99.90;;;;;;5116993;28;20267;-83
2022/01/05 03:15:54;;;;;;;0.90;0.73;;;11.00;99.90;;;;;;5116786;28;20224;-82
2022/01/05 03:18:23;;;;;;;0.38;0.38;;;11.00;99.90;;;;;;5117074;28;20288;-82
2022/01/05 03:20:51;;;;;;;0.43;0.43;;;11.00;99.90;;;;;;5116056;27;20234;-82
2022/01/05 03:23:20;;;;;;;0.38;0.38;;;11.00;99.90;;;;;;5116808;28;20199;-82
2022/01/05 03:25:48;;;;;;;0.45;0.40;;;10.90;99.90;;;;;;5116580;27;20251;-82
2022/01/05 03:28:18;;;;;;;1.25;0.60;;;10.90;99.90;;;;;;5116133;28;20264;-82
2022/01/05 03:30:46;;;;;;;0.40;0.40;;;10.90;99.90;;;;;;5116090;28;20238;-82
2022/01/05 03:33:20;;;;;;;0.68;0.65;;;10.80;99.90;;;;;;5116368;28;20199;-82
2022/01/05 03:35:49;;;;;;;0.40;0.40;;;10.80;99.90;;;;;;5116605;28;20223;-86
2022/01/05 03:38:19;;;;;;;0.80;0.73;;;10.80;99.90;;;;;;5116558;27;20249;-86
2022/01/05 03:40:49;;;;;;;0.75;0.63;;;10.80;99.90;;;;;;5115645;28;20226;-86
2022/01/05 03:43:19;;;;;;;0.30;0.30;;;10.70;99.90;;;;;;5115954;28;20242;-86
2022/01/05 03:45:48;;;;;;;0.50;0.50;;;10.70;99.90;;;;;;5116320;28;20247;-86
2022/01/05 03:48:19;;;;;;;0.60;0.60;;;10.70;99.90;;;;;;5116151;28;20204;-86
2022/01/05 03:50:48;;;;;;;0.75;0.75;;;10.70;99.90;;;;;;5115817;28;20207;-86
2022/01/05 03:53:16;;;;;;;0.50;0.50;;;10.70;99.90;;;;;;5115977;28;20256;-86
2022/01/05 03:55:47;;;;;;;0.30;0.30;;;10.60;99.90;;;;;;5115701;28;20318;-86
2022/01/05 03:58:16;;;;;;;0.68;0.68;;;10.60;99.90;;;;;;5115872;28;20210;-86
2022/01/05 04:00:48;;;;;;;1.13;0.88;;;10.60;99.90;;;;;;5115286;28;20268;-86
2022/01/05 04:03:17;;;;;;;0.60;0.60;;;10.60;99.90;;;;;;5115814;28;20200;-86
2022/01/05 04:05:45;;;;;;;0.70;0.70;;;10.50;99.90;;;;;;5115727;28;20220;-86
2022/01/05 04:08:14;;;;;;;0.52;0.52;;;10.50;99.90;;;;;;5115273;27;20208;-86
2022/01/05 04:10:42;;;;;;;1.35;0.65;;;10.50;99.90;;;;;;5115222;27;20207;-86
2022/01/05 04:13:11;;;;;;;0.70;0.70;;;10.50;99.90;;;;;;5115232;27;20231;-86
2022/01/05 04:15:39;;;;;;;0.45;0.45;;;10.40;99.90;;;;;;5114586;28;20266;-86
2022/01/05 04:18:09;;;;;;;0.52;0.52;;;10.40;99.90;;;;;;5115370;28;20295;-86
2022/01/05 04:20:38;;;;;;;0.60;0.60;;;10.40;99.90;;;;;;5114899;28;20284;-86
2022/01/05 04:23:06;;;;;;;1.30;0.73;;;10.40;99.90;;;;;;5115142;28;20322;-86
2022/01/05 04:25:35;;;;;;;0.50;0.50;;;10.30;99.90;;;;;;5114952;27;20284;-86
2022/01/05 04:28:04;;;;;;;0.57;0.50;;;10.30;99.90;;;;;;5115397;28;20207;-86
2022/01/05 04:30:33;;;;;;;1.05;0.68;;;10.30;99.90;;;;;;5114664;28;20272;-86
2022/01/05 04:33:01;;;;;;;0.40;0.40;;;10.30;99.90;;;;;;5114885;28;20311;-86
2022/01/05 04:35:51;;;;;;;0.50;0.50;;;10.20;99.90;;;;;;5115134;27;20230;-86
2022/01/05 04:38:19;;;;;;;0.40;0.40;;;10.20;99.90;;;;;;5115374;27;20234;-86
2022/01/05 04:40:48;;;;;;;0.30;0.30;;;10.10;99.90;;;;;;5114524;28;20295;-86
2022/01/05 04:43:16;;;;;;;0.32;0.32;;;10.10;99.90;;;;;;5115275;28;20278;-86
2022/01/05 04:45:44;;;;;;;0.43;0.43;;;10.00;99.90;;;;;;5114616;28;20310;-86
2022/01/05 04:48:13;;;;;;;0.30;0.30;;;10.00;99.90;;;;;;5114851;28;20216;-86
2022/01/05 04:50:42;;;;;;;0.50;0.50;;;10.00;99.90;;;;;;5114372;28;20236;-85
2022/01/05 04:53:13;;;;;;;0.63;0.63;;;10.00;99.90;;;;;;5114637;28;20238;-86
2022/01/05 04:55:42;;;;;;;0.25;0.25;;;10.00;99.90;;;;;;5114821;27;20224;-86
2022/01/05 04:58:10;;;;;;;0.17;0.17;;;9.90;99.90;;;;;;5114636;28;20225;-86
2022/01/05 05:00:39;;;;;;;0.20;0.20;;;9.90;99.90;;;;;;5114116;28;20263;-86
2022/01/05 05:03:07;;;;;;;0.30;0.30;;;9.90;99.90;;;;;;5114312;28;20273;-86
2022/01/05 05:05:36;;;;;;;0.40;0.40;;;9.90;99.90;;;;;;5114420;28;20223;-86
2022/01/05 05:08:05;;;;;;;0.45;0.45;;;9.90;99.90;;;;;;5114724;28;20238;-86
2022/01/05 05:10:34;;;;;;;0.20;0.20;;;9.90;99.90;;;;;;5113837;28;20207;-86
2022/01/05 05:13:08;;;;;;;0.40;0.40;;;9.90;99.90;;;;;;5114500;27;20250;-86
2022/01/05 05:15:36;;;;;;;0.25;0.25;;;9.80;99.90;;;;;;5114104;28;20231;-86
2022/01/05 05:18:06;;;;;;;0.25;0.25;;;9.80;99.90;;;;;;5114208;28;20212;-86
2022/01/05 05:20:34;;;;;;;0.50;0.50;;;9.80;99.90;;;;;;5114020;28;20208;-86
2022/01/05 05:23:04;;;;;;;0.60;0.60;;;9.70;99.90;;;;;;5114122;28;20198;-86
2022/01/05 05:25:32;;;;;;;0.38;0.38;;;9.60;99.90;;;;;;5114125;28;20270;-86
2022/01/05 05:28:02;;;;;;;0.60;0.50;;;9.60;99.90;;;;;;5113857;28;20259;-86
2022/01/05 05:30:34;;;;;;;0.43;0.43;;;9.60;99.90;;;;;;5113385;28;20227;-86
2022/01/05 05:33:03;;;;;;;0.32;0.32;;;9.50;99.90;;;;;;5114099;28;20299;-86
2022/01/05 05:35:32;;;;;;;0.70;0.40;;;9.40;99.90;;;;;;5113727;28;20251;-86
2022/01/05 05:38:00;;;;;;;0.40;0.40;;;9.20;99.90;;;;;;5113903;28;20210;-86
2022/01/05 05:40:28;;;;;;;1.17;0.95;;;9.10;99.90;;;;;;5113242;28;20280;-86
2022/01/05 05:42:57;;;;;;;1.75;0.45;;;9.00;99.90;;;;;;5113752;28;20199;-86
2022/01/05 05:45:26;;;;;;;0.40;0.40;;;8.90;99.90;;;;;;5113561;28;20258;-86
2022/01/05 05:47:55;;;;;;;0.40;0.40;;;8.80;99.90;;;;;;5113829;27;20299;-86
2022/01/05 05:50:23;;;;;;;0.30;0.30;;;8.70;99.90;;;;;;5114042;28;20211;-86
2022/01/05 05:52:51;;;;;;;0.43;0.43;;;8.70;99.90;;;;;;5113800;27;20224;-86
2022/01/05 05:55:20;;;;;;;0.30;0.30;;;8.60;99.90;;;;;;5113665;28;20243;-86
2022/01/05 05:57:48;;;;;;;0.32;0.32;;;8.60;99.90;;;;;;5113493;28;20341;-86
2022/01/05 06:00:17;;;;;;;0.15;0.15;;;8.40;99.90;;;;;;5113383;28;20223;-86
2022/01/05 06:02:47;;;;;;;0.55;0.43;;;8.30;99.90;;;;;;5113493;28;20290;-86
2022/01/05 06:05:15;;;;;;;0.57;0.57;;;8.20;99.90;;;;;;5113348;28;20216;-86
2022/01/05 06:07:44;;;;;;;0.55;0.55;;;8.20;99.90;;;;;;5113275;28;20211;-86
2022/01/05 06:10:12;;;;;;;0.50;0.50;;;8.20;99.90;;;;;;5112887;28;20300;-86
2022/01/05 06:12:41;;;;;;;0.43;0.43;;;8.20;99.90;;;;;;5113580;27;20212;-86
2022/01/05 06:15:10;;;;;;;0.43;0.43;;;8.20;99.90;;;;;;5112997;27;20227;-86
2022/01/05 06:17:38;;;;;;;0.52;0.52;;;8.20;99.90;;;;;;5113532;27;20283;-86
2022/01/05 06:20:10;;;;;;;1.15;0.68;;;8.20;99.90;;;;;;5112520;28;20207;-86
2022/01/05 06:22:40;;;;;;;1.85;0.70;;;8.20;99.90;;;;;;5113267;27;20207;-86
2022/01/05 06:25:10;;;;;;;0.52;0.52;;;8.10;99.90;;;;;;5113787;28;20238;-86
2022/01/05 06:27:39;;;;;;;0.35;0.35;;;8.10;99.90;;;;;;5113031;28;20295;-86
2022/01/05 06:30:09;;;;;;;0.50;0.50;;;8.10;99.90;;;;;;5112647;28;20216;-86
2022/01/05 06:32:43;;;;;;;0.50;0.50;;;8.10;99.90;;;;;;5113304;28;20238;-86
2022/01/05 06:35:14;;;;;;;0.75;0.70;;;8.10;99.90;;;;;;5112948;28;20223;-86
2022/01/05 06:37:42;;;;;;;0.43;0.43;;;8.00;99.90;;;;;;5112377;28;20239;-86
2022/01/05 06:40:12;;;;;;;0.40;0.40;;;8.00;99.90;;;;;;5112163;28;20210;-86
2022/01/05 06:42:41;;;;;;;0.63;0.63;;;8.00;99.90;;;;;;5112777;28;20203;-86
2022/01/05 06:45:10;;;;;;;0.75;0.75;;;8.10;99.90;;;;;;5112786;28;20204;-86
2022/01/05 06:47:39;;;;;;;0.63;0.40;;;8.00;99.90;;;;;;5112723;28;20206;-86
2022/01/05 06:50:09;;;;;;;0.75;0.73;;;8.00;99.90;;;;;;5112450;28;20231;-86
2022/01/05 06:52:39;;;;;;;0.80;0.80;;;8.00;99.90;;;;;;5112695;28;20295;-86
2022/01/05 06:55:09;;;;;;;0.98;0.98;;;8.00;99.90;;;;;;5113106;28;20207;-86
2022/01/05 06:57:39;;;;;;;1.05;1.05;;;8.00;99.90;;;;;;5112813;27;20265;-86
2022/01/05 07:00:09;;;;;;;0.93;0.93;;;7.90;99.90;;;;;;5112039;27;20204;-83
2022/01/05 07:02:38;;;;;;;1.13;1.13;;;8.00;99.90;;;;;;5112841;28;20203;-83
2022/01/05 07:05:07;;;;;;;0.90;0.90;;;7.90;99.90;;;;;;5112690;28;20199;-83
2022/01/05 07:07:37;;;;;;;1.88;1.45;;;7.90;99.90;;;;;;5112622;27;20208;-83
2022/01/05 07:10:10;;;;;;;2.67;1.20;;;7.90;99.90;;;;;;5112060;28;20211;-86
2022/01/05 07:12:39;;;;;;;1.58;1.48;;;8.00;99.90;;;;;;5112718;28;20227;-83
2022/01/05 07:15:09;;;;;;;1.30;1.30;;;8.00;99.90;;;;;;5112247;28;20216;-83
2022/01/05 07:17:38;;;;;;;1.00;1.00;;;8.00;99.90;;;;;;5112086;28;20267;-83
2022/01/05 07:20:08;;;;;;;0.95;0.95;;;8.00;99.90;;;;;;5112100;28;20283;-83
2022/01/05 07:22:37;;;;;;;1.30;1.27;;;8.00;99.90;;;;;;5112405;27;20204;-83
2022/01/05 07:25:08;;;;;;;0.90;0.90;;;8.00;99.90;;;;;;5112557;28;20204;-83
2022/01/05 07:27:38;;;;;;;1.13;1.13;;;8.00;99.90;;;;;;5112772;28;20206;-82
2022/01/05 07:30:08;;;;;;;0.93;0.93;;;8.00;99.90;;;;;;5111839;27;20254;-83
2022/01/05 07:32:36;;;;;;;1.13;1.10;;;8.00;99.90;;;;;;5112488;27;20234;-83
2022/01/05 07:35:05;;;;;;;0.90;0.90;;;8.00;99.90;;;;;;5112794;27;20243;-83
2022/01/05 07:37:33;;;;;;;0.90;0.90;;;8.00;99.90;;;;;;5112341;27;20208;-83
2022/01/05 07:40:02;;;;;;;0.88;0.88;;;7.90;99.90;;;;;;5111807;28;20275;-83
2022/01/05 07:42:34;;;;;;;0.63;0.63;;;8.00;99.90;;;;;;5112191;27;20227;-83
2022/01/05 07:45:03;;;;;;;0.90;0.90;;;7.90;99.90;;;;;;5112099;28;20241;-82
2022/01/05 07:47:32;;;;;;;1.02;0.90;;;7.90;99.90;;;;;;5112324;28;20295;-83
2022/01/05 07:50:00;;;;;;;0.88;0.88;;;7.90;99.90;;;;;;5112452;28;20242;-83
2022/01/05 07:52:29;;;;;;;0.80;0.80;;;7.90;99.90;;;;;;5114558;28;20231;-83
2022/01/05 07:55:07;;;;;;;0.82;0.80;;;7.90;99.90;;;;;;5099783;28;20303;-86
2022/01/05 07:57:45;;;;;;;0.73;0.73;;;7.90;99.90;;;;;;5096173;28;20243;-83
2022/01/05 08:00:17;;;;;;;1.08;1.05;;;7.90;99.90;;;;;;5107285;28;20294;-82
2022/01/05 08:03:09;;;;;;;0.98;0.98;;;7.90;99.90;;;;;;5103421;28;20483;-82
2022/01/05 08:05:52;;;;;;;0.88;0.88;;;7.90;99.90;;;;;;5100197;28;20211;-81
2022/01/05 08:08:35;;;;;;;1.63;1.48;;;7.90;99.90;;;;;;5114582;28;20286;-81
2022/01/05 08:11:14;;;;;;;1.00;1.00;;;7.90;99.90;;;;;;5096015;28;20208;-82
2022/01/05 08:13:52;;;;;;;1.02;0.90;;;7.80;99.90;;;;;;5111271;28;20315;-82
2022/01/05 08:16:21;;;;;;;0.85;0.85;;;7.80;99.90;;;;;;5109720;28;20220;-82
2022/01/05 08:18:50;;;;;;;1.00;1.00;;;7.80;99.90;;;;;;5095157;28;20204;-83
2022/01/05 08:21:21;;;;;;;0.70;0.70;;;7.80;99.90;;;;;;5097135;28;20201;-83
2022/01/05 08:23:51;;;;;;;0.68;0.68;;;7.70;99.90;;;;;;5105947;28;20188;-83
2022/01/05 08:26:19;;;;;;;0.88;0.88;;;7.70;99.90;;;;;;5115953;28;20279;-82
2022/01/05 08:28:47;;;;;;;0.98;0.85;;;7.70;99.90;;;;;;5095074;28;20235;-83
2022/01/05 08:31:21;;;;;;;0.93;0.90;;;7.70;99.90;;;;;;5106425;28;20234;-83
2022/01/05 08:33:50;;;;;;;0.75;0.75;;;7.70;99.90;;;;;;5101330;28;20207;-83
2022/01/05 08:36:18;;;;;;;0.50;0.50;;;7.70;99.90;;;;;;5113012;28;20253;-83
2022/01/05 08:38:47;;;;;;;0.82;0.82;;;7.70;99.90;;;;;;5096428;28;20216;-83
2022/01/05 08:41:15;;;;;;;0.57;0.57;;;7.60;99.90;;;;;;5095910;28;20296;-83
2022/01/05 08:43:44;;;;;;;1.30;0.80;;;7.50;99.90;;;;;;5115475;28;20288;-83
2022/01/05 08:46:12;;;;;;;0.68;0.68;;;7.50;99.90;;;;;;5102192;28;20220;-83
2022/01/05 08:48:43;;;;;;;0.57;0.57;;;7.40;99.90;;;;;;5094935;28;20256;-83
2022/01/05 08:51:11;;;;;;;0.57;0.55;;;7.40;99.90;;;;;;5098161;28;20223;-83
2022/01/05 08:53:41;;;;;;;0.80;0.80;;;7.30;99.90;;;;;;5104904;27;20207;-81
2022/01/05 08:56:17;;;;;;;0.40;0.40;;;7.30;99.90;;;;;;5107201;27;20243;-82
2022/01/05 08:58:45;;;;;;;0.63;0.63;;;7.20;99.90;;;;;;5094296;28;20231;-82
2022/01/05 09:01:13;;;;;;;0.73;0.73;;;7.20;99.90;;;;;;5108469;28;20253;-82
2022/01/05 09:03:44;;;;;;;0.80;0.57;;;7.20;99.90;;;;;;5109323;28;20207;-82
2022/01/05 09:06:12;;;;;;;0.57;0.57;;;7.10;99.90;;;;;;5101782;28;20216;-82
2022/01/05 09:08:40;;;;;;;0.50;0.50;;;7.10;99.90;;;;;;5098174;28;20227;-82
2022/01/05 09:11:09;;;;;;;0.70;0.70;;;6.90;99.90;;;;;;5098253;28;20215;-82
2022/01/05 09:13:39;;;;;;;0.65;0.65;;;6.90;99.90;;;;;;5096922;28;20295;-82
2022/01/05 09:16:12;;;;;;;0.80;0.80;;;6.80;99.90;;;;;;5097126;28;20243;-82
2022/01/05 09:18:45;;;;;;;0.60;0.60;;;6.80;99.90;;;;;;5098901;28;20325;-82
2022/01/05 09:21:19;;;;;;;0.35;0.35;;;6.70;99.90;;;;;;5094318;28;20232;-82
2022/01/05 09:23:50;;;;;;;0.68;0.68;;;6.70;99.90;;;;;;5111618;28;20204;-82
2022/01/05 09:26:18;;;;;;;0.90;0.90;;;6.60;99.90;;;;;;5102193;28;20239;-82
2022/01/05 09:28:47;;;;;;;0.75;0.75;;;6.60;99.90;;;;;;5095428;28;20201;-82
2022/01/05 09:31:16;;;;;;;1.10;0.95;;;6.60;99.90;;;;;;5106982;27;20199;-82
2022/01/05 09:33:46;;;;;;;9.68;1.00;;;6.60;99.90;;;;;;5100019;28;20292;-82
2022/01/05 09:36:18;;;;;;;0.52;0.52;;;6.50;99.90;;;;;;5107651;28;20243;-83
2022/01/05 09:44:19;;;;;;;1.45;1.00;;;6.30;99.90;;;;;;5113783;27;20199;-83
2022/01/05 09:47:04;;;;;;;0.60;0.60;;;6.40;99.90;;;;;;5119981;27;20223;-83
2022/01/05 09:49:36;;;;;;;0.60;0.60;;;6.40;99.90;;;;;;5130251;27;20196;-83
2022/01/05 09:52:06;;;;;;;0.70;0.70;;;6.30;99.90;;;;;;5132734;27;20220;-83
2022/01/05 09:54:35;;;;;;;0.88;0.82;;;6.30;99.90;;;;;;5130328;27;20195;-83
2022/01/05 09:57:06;;;;;;;0.35;0.35;;;6.30;99.90;;;;;;5133051;27;20309;-83
2022/01/05 09:59:35;;;;;;;0.57;0.57;;;6.30;99.90;;;;;;5130017;27;20218;-83
2022/01/05 10:02:10;;;;;;;0.30;0.30;;;6.30;99.90;;;;;;5120027;27;20194;-83
2022/01/05 10:04:41;;;;;;;1.50;0.55;;;6.30;99.90;;;;;;5117473;27;20225;-84
2022/01/05 10:07:10;;;;;;;0.50;0.50;;;6.30;99.90;;;;;;5111438;27;20238;-83
2022/01/05 10:09:39;;;;;;;0.70;0.55;;;6.30;99.90;;;;;;5093390;28;20239;-83
2022/01/05 10:12:09;;;;;;;0.32;0.32;;;6.40;99.90;;;;;;5109116;28;20228;-82
2022/01/05 10:14:41;;;;;;;0.40;0.40;;;6.40;99.90;;;;;;5105388;27;20228;-82
2022/01/05 10:17:14;;;;;;;0.40;0.40;;;6.40;99.90;;;;;;5107689;28;20227;-82
2022/01/05 10:19:45;;;;;;;0.55;0.50;;;6.50;99.90;;;;;;5114170;27;20219;-82
2022/01/05 10:22:33;;;;;;;0.50;0.50;;;6.50;99.90;;;;;;5126987;27;20223;-82
2022/01/05 10:25:03;;;;;;;0.63;0.63;;;6.50;99.90;;;;;;5130406;27;20259;-82
2022/01/05 10:27:31;;;;;;;0.55;0.55;;;6.50;99.90;;;;;;5118127;27;20243;-82
2022/01/05 10:30:04;;;;;;;1.27;1.00;;;6.70;99.90;;;;;;5105781;28;20232;-82
2022/01/05 10:32:35;;;;;;;0.13;0.13;;;6.70;99.90;;;;;;5133246;27;20199;-85
2022/01/05 10:35:11;;;;;;;0.35;0.35;;;6.70;99.90;;;;;;5133651;27;20219;-85
2022/01/05 10:37:41;;;;;;;0.45;0.45;;;6.60;99.90;;;;;;5133244;27;20241;-84
2022/01/05 10:40:17;;;;;;;0.77;0.73;;;6.60;99.90;;;;;;5132751;27;20214;-84
2022/01/05 10:42:46;;;;;;;0.60;0.60;;;6.60;99.90;;;;;;5133196;27;20210;-84
2022/01/05 10:45:16;;;;;;;0.50;0.50;;;6.70;99.90;;;;;;5133240;27;20199;-84
2022/01/05 10:48:03;;;;;;;0.38;0.38;;;6.70;99.90;;;;;;5132308;27;20294;-84
2022/01/05 10:50:33;;;;;;;0.60;0.60;;;6.80;99.90;;;;;;5132544;27;20267;-84
2022/01/05 10:53:02;;;;;;;0.40;0.40;;;6.80;99.90;;;;;;5132799;27;20256;-85
2022/01/05 10:55:32;;;;;;;0.50;0.50;;;6.80;99.90;;;;;;5133032;27;20272;-84
2022/01/05 10:58:03;;;;;;;0.45;0.45;;;6.70;99.90;;;;;;5132910;27;20230;-85
2022/01/05 11:00:42;;;;;;;0.70;0.70;;;6.80;99.90;;;;;;5132759;28;20267;-84
2022/01/05 11:03:28;;;;;;;0.22;0.22;;;6.80;99.90;;;;;;5133398;27;20218;-84
2022/01/05 11:06:05;;;;;;;0.47;0.40;;;6.80;99.90;;;;;;5133629;28;20315;-84
2022/01/05 11:08:46;;;;;;;0.40;0.40;;;6.80;99.90;;;;;;5132910;28;20230;-85
2022/01/05 11:11:36;;;;;;;0.30;0.30;;;6.70;99.90;;;;;;5133063;27;20198;-85
2022/01/05 11:14:05;;;;;;;0.40;0.40;;;6.70;99.90;;;;;;5133535;28;20251;-85
2022/01/05 11:16:34;;;;;;;0.45;0.45;;;6.70;99.90;;;;;;5132794;27;20251;-85
2022/01/05 11:19:15;;;;;;;0.30;0.30;;;6.70;99.90;;;;;;5132439;27;20214;-85
2022/01/05 11:21:58;;;;;;;0.63;0.63;;;6.60;99.90;;;;;;5133050;28;20222;-85
2022/01/05 11:24:28;;;;;;;0.32;0.32;;;6.60;99.90;;;;;;5134007;27;20236;-85
2022/01/05 11:26:57;;;;;;;0.55;0.55;;;6.70;99.90;;;;;;5137150;27;20215;-85
2022/01/05 11:29:25;;;;;;;0.43;0.43;;;6.60;99.90;;;;;;5136463;27;20214;-84
2022/01/05 11:31:56;;;;;;;0.50;0.50;;;6.60;99.90;;;;;;5136802;27;20207;-85
2022/01/05 11:34:28;;;;;;;0.70;0.70;;;6.60;99.90;;;;;;5136648;27;20243;-84
2022/01/05 11:37:01;;;;;;;0.30;0.30;;;6.70;99.90;;;;;;5136391;27;20226;-84
2022/01/05 11:39:33;;;;;;;0.35;0.35;;;6.60;99.90;;;;;;5136358;27;20229;-84
2022/01/05 11:42:09;;;;;;;0.35;0.35;;;6.70;99.90;;;;;;5136760;27;20248;-84
2022/01/05 11:44:46;;;;;;;0.32;0.32;;;6.70;99.90;;;;;;5136671;27;20255;-84
2022/01/05 11:47:26;;;;;;;0.25;0.25;;;6.60;99.90;;;;;;5135887;27;20238;-84
2022/01/05 11:49:57;;;;;;;0.50;0.50;;;6.60;99.90;;;;;;5135820;27;20289;-84
2022/01/05 11:52:55;;;;;;;0.40;0.40;;;6.60;99.90;;;;;;5136796;27;20207;-84
2022/01/05 11:55:24;;;;;;;0.30;0.30;;;6.60;99.90;;;;;;5137080;27;20231;-84
2022/01/05 11:58:15;;;;;;;0.65;0.65;;;6.70;99.90;;;;;;5136300;27;20206;-84
2022/01/05 12:00:44;;;;;;;0.60;0.60;;;6.70;99.90;;;;;;5135917;27;20242;-84
2022/01/05 12:03:12;;;;;;;0.77;0.77;;;6.70;99.90;;;;;;5136204;27;20213;-84
2022/01/05 12:06:03;;;;;;;0.52;0.52;;;6.70;99.90;;;;;;5136388;27;20227;-84
2022/01/05 12:08:44;;;;;;;0.40;0.40;;;6.70;99.90;;;;;;5136352;27;20233;-84
2022/01/05 12:11:29;;;;;;;0.75;0.75;;;6.70;99.90;;;;;;5136465;27;20287;-84
2022/01/05 12:13:58;;;;;;;0.85;0.77;;;6.70;99.90;;;;;;5136009;27;20241;-84
2022/01/05 12:16:27;;;;;;;0.50;0.50;;;6.70;99.90;;;;;;5135876;27;20247;-84
2022/01/05 12:19:14;;;;;;;0.47;0.47;;;6.70;99.90;;;;;;5135498;27;20266;-84
2022/01/05 12:21:45;;;;;;;0.60;0.60;;;6.70;99.90;;;;;;5135998;27;20206;-84
2022/01/05 12:24:16;;;;;;;1.83;0.95;;;6.70;99.90;;;;;;5135799;27;20215;-84
2022/01/05 12:26:45;;;;;;;0.63;0.63;;;6.70;99.90;;;;;;5136037;27;20282;-84
2022/01/05 12:29:13;;;;;;;0.57;0.57;;;6.70;99.90;;;;;;5135335;27;20246;-84
2022/01/05 12:31:59;;;;;;;0.73;0.70;;;6.70;99.90;;;;;;5135994;27;20238;-84
2022/01/05 12:34:56;;;;;;;0.70;0.70;;;6.70;99.90;;;;;;5135875;27;20207;-84
2022/01/05 12:37:58;;;;;;;0.60;0.60;;;6.80;99.90;;;;;;5134906;27;20314;-84
2022/01/05 12:40:33;;;;;;;0.57;0.57;;;6.90;99.90;;;;;;5051799;28;20229;-84
2022/01/05 12:43:35;;;;;;;3.28;1.90;;;6.80;99.90;;;;;;5122957;27;20283;-84
2022/01/05 12:46:11;;;;;;;1.42;1.33;;;6.80;99.90;;;;;;5135991;27;20288;-84
2022/01/05 12:49:06;;;;;;;1.38;1.10;;;6.80;99.90;;;;;;5134912;27;20290;-84
2022/01/05 12:51:52;;;;;;;0.95;0.95;;;6.90;99.90;;;;;;5135612;27;20203;-84
2022/01/05 12:54:23;;;;;;;0.50;0.50;;;6.90;99.90;;;;;;5133403;27;20198;-84
2022/01/05 12:56:56;;;;;;;0.50;0.50;;;6.90;99.90;;;;;;5135502;27;20350;-84
2022/01/05 12:59:29;;;;;;;0.95;0.95;;;6.90;99.90;;;;;;5134877;27;20211;-84
2022/01/05 13:02:01;;;;;;;0.80;0.80;;;6.90;99.90;;;;;;5135409;27;20202;-84
2022/01/05 13:04:30;;;;;;;0.70;0.70;;;6.90;99.90;;;;;;5135385;27;20211;-85
2022/01/05 13:07:00;;;;;;;1.63;1.10;;;6.90;99.90;;;;;;5134901;27;20216;-84
2022/01/05 13:09:31;;;;;;;1.52;1.38;;;6.90;99.90;;;;;;5135156;27;20252;-84
2022/01/05 13:12:07;;;;;;;0.93;0.93;;;6.90;99.90;;;;;;5136046;27;20203;-90
2022/01/05 13:14:38;;;;;;;1.20;1.13;;;6.90;99.90;;;;;;5135372;27;20207;-90
2022/01/05 13:17:10;;;;;;;0.95;0.95;;;6.90;99.90;;;;;;5135117;27;20237;-84
2022/01/05 13:19:42;;;;;;;1.10;1.05;;;6.90;99.90;;;;;;5120393;27;20228;-89
2022/01/05 13:22:17;;;;;;;0.70;0.70;;;6.90;99.90;;;;;;5105863;28;20227;-89